| time (UTC) | temp F | wind direction | speed MPH | gust MPH | rain 1hr in | rain 24hr in | rain mn in | humidity % | barometer mb |
| 20260510230043 | 56 | 0 | 0.0 | 0.0 | 0.00 | 0.00 | 0.00 | 63 | 1009.0 |
| 20260510224544 | 56 | 0 | 0.0 | 0.0 | 0.00 | 0.00 | 0.00 | 63 | 1008.9 |
| 20260510223040 | 56 | 0 | 0.0 | 0.0 | 0.00 | 0.00 | 0.00 | 63 | 1009.0 |
| 20260510221538 | 56 | 0 | 0.0 | 0.0 | 0.00 | 0.00 | 0.00 | 63 | 1009.0 |
| 20260510220044 | 55 | 0 | 0.0 | 0.0 | 0.00 | 0.00 | 0.00 | 64 | 1009.2 |
| 20260510214543 | 56 | 0 | 0.0 | 0.0 | 0.00 | 0.00 | 0.00 | 63 | 1009.2 |
| 20260510213042 | 56 | 0 | 0.0 | 0.0 | 0.00 | 0.00 | 0.00 | 63 | 1009.2 |
| 20260510211541 | 56 | 0 | 0.0 | 0.0 | 0.00 | 0.00 | 0.00 | 63 | 1009.4 |
| 20260510210040 | 56 | 0 | 0.0 | 0.0 | 0.00 | 0.00 | 0.00 | 63 | 1009.4 |
| 20260510204536 | 56 | 0 | 0.0 | 0.0 | 0.00 | 0.00 | 0.00 | 62 | 1009.3 |
| 20260510203036 | 56 | 0 | 0.0 | 0.0 | 0.00 | 0.00 | 0.00 | 62 | 1009.4 |
| 20260510201543 | 56 | 0 | 0.0 | 0.0 | 0.00 | 0.00 | 0.00 | 61 | 1009.4 |
| 20260510200041 | 57 | 0 | 0.0 | 0.0 | 0.00 | 0.00 | 0.00 | 61 | 1009.6 |
| 20260510194542 | 57 | 0 | 0.0 | 0.0 | 0.00 | 0.00 | 0.00 | 60 | 1009.5 |
| 20260510193041 | 57 | 0 | 0.0 | 0.0 | 0.00 | 0.00 | 0.00 | 60 | 1009.6 |
| 20260510191543 | 57 | 0 | 0.0 | 0.0 | 0.00 | 0.00 | 0.00 | 60 | 1009.4 |
| 20260510190047 | 57 | 0 | 0.0 | 0.0 | 0.00 | 0.00 | 0.00 | 60 | 1009.4 |
| 20260510184542 | 57 | 0 | 0.0 | 0.0 | 0.00 | 0.00 | 0.00 | 60 | 1009.2 |
| 20260510183043 | 57 | 0 | 0.0 | 0.0 | 0.00 | 0.00 | 0.00 | 61 | 1009.1 |
| 20260510181541 | 57 | 0 | 0.0 | 0.0 | 0.00 | 0.00 | 0.00 | 61 | 1009.0 |
| 20260510180036 | 58 | 0 | 0.0 | 0.0 | 0.00 | 0.00 | 0.00 | 60 | 1009.0 |
| 20260510174544 | 58 | 0 | 0.0 | 0.0 | 0.00 | 0.00 | 0.00 | 58 | 1008.9 |
| 20260510173044 | 58 | 0 | 0.0 | 0.0 | 0.00 | 0.00 | 0.00 | 58 | 1009.1 |
| 20260510171540 | 58 | 0 | 0.0 | 0.0 | 0.00 | 0.00 | 0.00 | 58 | 1009.2 |
| 20260510170044 | 59 | 0 | 0.0 | 0.0 | 0.00 | 0.00 | 0.00 | 57 | 1009.5 |
| 20260510164540 | 59 | 0 | 0.0 | 0.0 | 0.00 | 0.00 | 0.00 | 56 | 1009.5 |
| 20260510163037 | 59 | 0 | 0.0 | 0.0 | 0.00 | 0.00 | 0.00 | 55 | 1009.8 |
| 20260510161541 | 59 | 0 | 0.0 | 0.0 | 0.00 | 0.00 | 0.00 | 55 | 1009.7 |
| 20260510160042 | 60 | 0 | 0.0 | 0.0 | 0.00 | 0.00 | 0.00 | 55 | 1010.0 |
| 20260510154541 | 60 | 0 | 0.0 | 0.0 | 0.00 | 0.00 | 0.00 | 55 | 1010.0 |
| 20260510153040 | 61 | 0 | 0.0 | 0.0 | 0.00 | 0.00 | 0.00 | 52 | 1009.9 |
| 20260510151543 | 61 | 0 | 0.0 | 0.0 | 0.00 | 0.00 | 0.00 | 51 | 1009.8 |
| 20260510150042 | 62 | 0 | 0.0 | 0.0 | 0.00 | 0.00 | 0.00 | 49 | 1009.8 |
| 20260510144556 | 62 | 0 | 0.0 | 0.0 | 0.00 | 0.00 | 0.00 | 49 | 1010.0 |
| 20260510143044 | 63 | 0 | 0.0 | 0.0 | 0.00 | 0.00 | 0.00 | 47 | 1009.8 |
| 20260510141541 | 64 | 0 | 0.0 | 0.0 | 0.00 | 0.00 | 0.00 | 45 | 1009.9 |
| 20260510140040 | 65 | 0 | 0.0 | 0.0 | 0.00 | 0.00 | 0.00 | 43 | 1010.0 |
| 20260510134556 | 65 | 0 | 0.0 | 0.0 | 0.00 | 0.03 | 0.00 | 43 | 1010.2 |
| 20260510133036 | 65 | 0 | 0.0 | 0.0 | 0.00 | 0.03 | 0.00 | 44 | 1010.2 |
| 20260510131541 | 66 | 0 | 0.0 | 0.0 | 0.00 | 0.03 | 0.00 | 42 | 1010.4 |
| 20260510130041 | 66 | 0 | 0.0 | 0.0 | 0.00 | 0.03 | 0.00 | 40 | 1010.4 |
| 20260510124546 | 66 | 0 | 0.0 | 0.0 | 0.00 | 0.03 | 0.00 | 39 | 1010.6 |
| 20260510123040 | 68 | 0 | 0.0 | 0.0 | 0.00 | 0.03 | 0.00 | 37 | 1010.6 |
| 20260510121546 | 69 | 0 | 0.0 | 0.0 | 0.00 | 0.03 | 0.00 | 36 | 1010.9 |
| 20260510120041 | 68 | 0 | 0.0 | 0.0 | 0.00 | 0.03 | 0.00 | 36 | 1010.9 |
| 20260510114542 | 67 | 0 | 0.0 | 0.0 | 0.00 | 0.03 | 0.00 | 37 | 1011.2 |
| 20260510113041 | 66 | 0 | 0.0 | 0.0 | 0.00 | 0.03 | 0.00 | 38 | 1011.2 |
| 20260510111553 | 65 | 0 | 0.0 | 0.0 | 0.00 | 0.03 | 0.00 | 39 | 1011.4 |
| 20260510110040 | 65 | 0 | 0.0 | 0.0 | 0.00 | 0.03 | 0.00 | 39 | 1011.4 |
| 20260510104549 | 66 | 0 | 0.0 | 0.0 | 0.00 | 0.03 | 0.00 | 38 | 1011.8 |
| 20260510103038 | 67 | 0 | 0.0 | 0.0 | 0.00 | 0.03 | 0.00 | 38 | 1011.7 |
| 20260510101542 | 66 | 0 | 0.0 | 0.0 | 0.00 | 0.03 | 0.00 | 39 | 1011.8 |
| 20260510100041 | 66 | 0 | 0.0 | 0.0 | 0.00 | 0.03 | 0.00 | 40 | 1011.9 |
| 20260510094542 | 66 | 0 | 0.0 | 0.0 | 0.00 | 0.03 | 0.00 | 40 | 1012.2 |
| 20260510093040 | 66 | 0 | 0.0 | 0.0 | 0.00 | 0.03 | 0.00 | 41 | 1012.3 |
| 20260510091536 | 65 | 0 | 0.0 | 0.0 | 0.00 | 0.03 | 0.00 | 43 | 1012.4 |
| 20260510090036 | 64 | 0 | 0.0 | 0.0 | 0.00 | 0.03 | 0.00 | 42 | 1012.4 |
| 20260510084543 | 64 | 0 | 0.0 | 0.0 | 0.00 | 0.03 | 0.00 | 44 | 1012.6 |
| 20260510083041 | 63 | 0 | 0.0 | 0.0 | 0.00 | 0.03 | 0.00 | 45 | 1012.7 |
| 20260510081630 | 62 | 0 | 0.0 | 0.0 | 0.00 | 0.03 | 0.00 | 46 | 1012.9 |
| 20260510080039 | 61 | 0 | 0.0 | 0.0 | 0.00 | 0.03 | 0.00 | 49 | 1013.0 |
| 20260510074540 | 60 | 0 | 0.0 | 0.0 | 0.00 | 0.03 | 0.00 | 50 | 1013.1 |
| 20260510073044 | 60 | 0 | 0.0 | 0.0 | 0.00 | 0.03 | 0.00 | 51 | 1013.2 |
| 20260510071542 | 60 | 0 | 0.0 | 0.0 | 0.00 | 0.03 | 0.00 | 52 | 1013.3 |
| 20260510070044 | 59 | 0 | 0.0 | 0.0 | 0.00 | 0.03 | 0.00 | 55 | 1013.4 |
| 20260510064540 | 56 | 0 | 0.0 | 0.0 | 0.00 | 0.03 | 0.00 | 62 | 1013.7 |
| 20260510063041 | 52 | 0 | 0.0 | 0.0 | 0.00 | 0.03 | 0.00 | 68 | 1013.7 |
| 20260510061541 | 51 | 0 | 0.0 | 0.0 | 0.00 | 0.03 | 0.00 | 70 | 1014.0 |
| 20260510060052 | 50 | 0 | 0.0 | 0.0 | 0.00 | 0.03 | 0.00 | 75 | 1014.1 |
| 20260510054541 | 49 | 0 | 0.0 | 0.0 | 0.00 | 0.03 | 0.00 | 77 | 1014.2 |
| 20260510053042 | 48 | 0 | 0.0 | 0.0 | 0.00 | 0.03 | 0.00 | 77 | 1014.4 |
| 20260510051559 | 48 | 0 | 0.0 | 0.0 | 0.00 | 0.03 | 0.00 | 76 | 1014.4 |
| 20260510050042 | 48 | 0 | 0.0 | 0.0 | 0.00 | 0.03 | 0.00 | 77 | 1014.6 |
| 20260510044542 | 47 | 0 | 0.0 | 0.0 | 0.00 | 0.03 | 0.00 | 77 | 1014.8 |
| 20260510043042 | 47 | 0 | 0.0 | 0.0 | 0.00 | 0.03 | 0.00 | 77 | 1015.0 |
| 20260510041549 | 47 | 0 | 0.0 | 0.0 | 0.00 | 0.03 | 0.00 | 76 | 1015.1 |
| 20260510040043 | 47 | 0 | 0.0 | 0.0 | 0.00 | 0.03 | 0.00 | 77 | 1015.0 |
| 20260510034544 | 47 | 0 | 0.0 | 0.0 | 0.00 | 0.03 | 0.00 | 77 | 1015.1 |
| 20260510033042 | 47 | 0 | 0.0 | 0.0 | 0.00 | 0.03 | 0.00 | 77 | 1015.1 |
| 20260510031608 | 47 | 0 | 0.0 | 0.0 | 0.00 | 0.03 | 0.00 | 77 | 1015.3 |
| 20260510030038 | 47 | 0 | 0.0 | 0.0 | 0.00 | 0.03 | 0.00 | 78 | 1015.4 |
| 20260510024538 | 47 | 0 | 0.0 | 0.0 | 0.00 | 0.03 | 0.00 | 77 | 1015.4 |
| 20260510023048 | 47 | 0 | 0.0 | 0.0 | 0.00 | 0.03 | 0.00 | 76 | 1015.6 |
| 20260510021544 | 47 | 0 | 0.0 | 0.0 | 0.00 | 0.03 | 0.00 | 77 | 1015.6 |
| 20260510020042 | 47 | 0 | 0.0 | 0.0 | 0.00 | 0.03 | 0.00 | 78 | 1015.6 |
| 20260510014544 | 48 | 0 | 0.0 | 0.0 | 0.00 | 0.03 | 0.00 | 77 | 1015.7 |
| 20260510013043 | 48 | 0 | 0.0 | 0.0 | 0.00 | 0.03 | 0.00 | 77 | 1015.6 |
| 20260510011554 | 48 | 0 | 0.0 | 0.0 | 0.00 | 0.03 | 0.00 | 77 | 1015.7 |
| 20260510010050 | 48 | 0 | 0.0 | 0.0 | 0.00 | 0.03 | 0.00 | 77 | 1015.7 |
| 20260510004540 | 48 | 0 | 0.0 | 0.0 | 0.00 | 0.03 | 0.00 | 76 | 1015.7 |
| 20260510003041 | 48 | 0 | 0.0 | 0.0 | 0.00 | 0.03 | 0.00 | 76 | 1015.8 |
| 20260510001536 | 49 | 0 | 0.0 | 0.0 | 0.00 | 0.03 | 0.00 | 75 | 1015.9 |
| 20260510000037 | 49 | 0 | 0.0 | 0.0 | 0.00 | 0.03 | 0.00 | 75 | 1016.1 |
| 20260509234542 | 49 | 0 | 0.0 | 0.0 | 0.00 | 0.03 | 0.00 | 75 | 1016.3 |
| 20260509233041 | 49 | 0 | 0.0 | 0.0 | 0.00 | 0.03 | 0.00 | 74 | 1016.4 |
| 20260509231546 | 49 | 0 | 0.0 | 0.0 | 0.00 | 0.03 | 0.00 | 74 | 1016.7 |